createdAt,value
2018-05-01T00:02:11.065Z,10.87
2018-05-01T00:04:45.621Z,10.82
2018-05-01T00:07:20.861Z,10.81
2018-05-01T00:09:55.805Z,10.67
2018-05-01T00:12:30.640Z,10.66
2018-05-01T00:15:05.001Z,10.70
2018-05-01T00:17:39.964Z,10.68
2018-05-01T00:20:15.041Z,10.68
2018-05-01T00:22:50.177Z,10.63
2018-05-01T00:25:25.192Z,10.60
2018-05-01T00:28:00.505Z,10.63
2018-05-01T00:30:35.258Z,10.57
2018-05-01T00:33:10.213Z,10.57
2018-05-01T00:35:45.041Z,10.51
2018-05-01T00:38:19.752Z,10.51
2018-05-01T00:40:54.596Z,10.52
2018-05-01T00:43:29.441Z,10.50
2018-05-01T00:46:03.854Z,10.45
2018-05-01T00:48:38.353Z,10.42
2018-05-01T00:51:13.301Z,10.41
2018-05-01T00:53:48.040Z,10.33
2018-05-01T00:56:22.929Z,10.33
2018-05-01T00:58:57.805Z,10.29
2018-05-01T01:01:32.485Z,10.24
2018-05-01T01:04:07.229Z,10.22
2018-05-01T01:06:41.751Z,10.11
2018-05-01T01:09:16.646Z,10.05
2018-05-01T01:11:51.744Z,9.88
2018-05-01T01:14:26.241Z,9.82
2018-05-01T01:17:01.153Z,9.71
2018-05-01T01:19:35.849Z,9.58
2018-05-01T01:22:10.809Z,9.39
2018-05-01T01:24:45.604Z,9.31
2018-05-01T01:27:20.844Z,9.30
2018-05-01T01:29:56.808Z,9.30
2018-05-01T01:32:30.989Z,9.24
2018-05-01T01:35:04.961Z,9.16
2018-05-01T01:37:38.089Z,9.12
2018-05-01T01:40:12.173Z,9.10
2018-05-01T01:42:46.233Z,9.07
2018-05-01T01:45:20.382Z,8.99
2018-05-01T01:47:54.065Z,8.97
2018-05-01T01:50:27.785Z,8.94
2018-05-01T01:53:01.670Z,8.92
2018-05-01T01:55:35.592Z,8.92
2018-05-01T01:58:09.197Z,8.91
2018-05-01T02:00:43.125Z,8.85
2018-05-01T02:03:17.157Z,8.85
2018-05-01T02:05:50.853Z,8.79
2018-05-01T02:08:24.565Z,8.76
2018-05-01T02:10:58.739Z,8.77
2018-05-01T02:13:32.345Z,8.67
2018-05-01T02:16:06.350Z,8.65
2018-05-01T02:18:40.249Z,8.59
2018-05-01T02:21:14.173Z,8.55
2018-05-01T02:23:48.050Z,8.52
2018-05-01T02:26:21.983Z,8.50
2018-05-01T02:28:55.682Z,8.50
2018-05-01T02:31:29.330Z,8.43
2018-05-01T02:34:03.433Z,8.37
2018-05-01T02:36:37.015Z,8.37
2018-05-01T02:39:10.669Z,8.32
2018-05-01T02:41:44.117Z,8.27
2018-05-01T02:44:17.619Z,8.19
2018-05-01T02:46:51.377Z,8.15
2018-05-01T02:49:24.851Z,8.11
2018-05-01T02:51:58.849Z,8.09
2018-05-01T02:54:32.558Z,8.04
2018-05-01T02:57:06.267Z,7.99
2018-05-01T02:59:40.649Z,7.93
2018-05-01T03:02:14.526Z,7.93
2018-05-01T03:04:47.993Z,7.92
2018-05-01T03:07:21.757Z,7.89
2018-05-01T03:09:55.484Z,7.90
2018-05-01T03:12:29.041Z,7.88
2018-05-01T03:15:02.485Z,7.83
2018-05-01T03:17:36.194Z,7.87
2018-05-01T03:20:09.765Z,7.85
2018-05-01T03:22:43.997Z,7.84
2018-05-01T03:25:17.627Z,7.85
2018-05-01T03:27:51.211Z,7.82
2018-05-01T03:30:24.930Z,7.72
2018-05-01T03:32:58.689Z,7.67
2018-05-01T03:35:32.260Z,7.65
2018-05-01T03:38:05.845Z,7.66
2018-05-01T03:40:39.541Z,7.66
2018-05-01T03:43:12.932Z,7.66
2018-05-01T03:45:46.649Z,7.69
2018-05-01T03:48:20.333Z,7.66
2018-05-01T03:50:53.952Z,7.69
2018-05-01T03:53:27.438Z,7.67
2018-05-01T03:56:01.174Z,7.61
2018-05-01T03:58:34.793Z,7.65
2018-05-01T04:01:08.546Z,7.62
2018-05-01T04:03:42.156Z,7.61
2018-05-01T04:06:15.825Z,7.59
2018-05-01T04:08:49.309Z,7.60
2018-05-01T04:11:23.157Z,7.63
2018-05-01T04:13:56.589Z,7.65
2018-05-01T04:16:30.373Z,7.66
2018-05-01T04:19:04.180Z,7.66
2018-05-01T04:21:38.001Z,7.69
2018-05-01T04:24:11.905Z,7.70
2018-05-01T04:26:45.625Z,7.68
2018-05-01T04:29:18.997Z,7.68
2018-05-01T04:31:52.601Z,7.70
2018-05-01T04:34:25.929Z,7.74
2018-05-01T04:37:00.385Z,7.79
2018-05-01T04:39:34.028Z,7.73
2018-05-01T04:42:07.623Z,7.66
2018-05-01T04:44:41.242Z,7.76
2018-05-01T04:47:14.921Z,7.81
2018-05-01T04:49:48.598Z,7.79
2018-05-01T04:52:22.553Z,7.72
2018-05-01T04:54:56.168Z,7.71
2018-05-01T04:57:29.961Z,7.74
2018-05-01T05:00:03.458Z,7.71
2018-05-01T05:02:36.851Z,7.72
2018-05-01T05:05:10.470Z,7.66
2018-05-01T05:07:43.872Z,7.66
2018-05-01T05:10:17.476Z,7.68
2018-05-01T05:12:50.928Z,7.72
2018-05-01T05:15:24.877Z,7.73
2018-05-01T05:17:58.708Z,7.74
2018-05-01T05:20:32.285Z,7.65
2018-05-01T05:23:05.874Z,7.62
2018-05-01T05:25:39.192Z,7.59
2018-05-01T05:28:13.229Z,7.60
2018-05-01T05:30:46.600Z,7.55
2018-05-01T05:33:20.285Z,7.60
2018-05-01T05:35:53.589Z,7.64
2018-05-01T05:38:27.241Z,7.59
2018-05-01T05:41:00.913Z,7.57
2018-05-01T05:43:35.297Z,7.62
2018-05-01T05:46:08.613Z,7.61
2018-05-01T05:48:42.310Z,7.68
2018-05-01T05:51:16.124Z,7.70
2018-05-01T05:53:49.633Z,7.68
2018-05-01T05:56:23.833Z,7.68
2018-05-01T05:58:57.856Z,7.72
2018-05-01T06:01:31.575Z,7.70
2018-05-01T06:04:05.161Z,7.76
2018-05-01T06:06:38.808Z,7.77
2018-05-01T06:09:12.533Z,7.79
2018-05-01T06:11:46.110Z,7.80
2018-05-01T06:14:20.041Z,7.77
2018-05-01T06:16:53.785Z,7.82
2018-05-01T06:19:27.275Z,7.85
2018-05-01T06:22:01.108Z,7.88
2018-05-01T06:24:34.676Z,7.90
2018-05-01T06:27:08.220Z,7.85
2018-05-01T06:29:42.167Z,7.87
2018-05-01T06:32:15.708Z,7.84
2018-05-01T06:34:49.599Z,7.91
2018-05-01T06:37:23.196Z,7.94
2018-05-01T06:39:56.852Z,7.96
2018-05-01T06:42:30.409Z,7.97
2018-05-01T06:45:04.270Z,8.00
2018-05-01T06:47:38.026Z,8.02
2018-05-01T06:50:11.469Z,8.06
2018-05-01T06:52:54.885Z,8.08
2018-05-01T06:55:28.459Z,8.13
2018-05-01T06:58:02.261Z,8.17
2018-05-01T07:00:35.737Z,8.18
2018-05-01T07:03:09.317Z,8.17
2018-05-01T07:05:42.868Z,8.19
2018-05-01T07:08:16.525Z,8.23
2018-05-01T07:10:50.468Z,8.26
2018-05-01T07:13:24.306Z,8.27
2018-05-01T07:15:58.001Z,8.27
2018-05-01T07:18:31.614Z,8.28
2018-05-01T07:21:05.465Z,8.27
2018-05-01T07:23:38.973Z,8.26
2018-05-01T07:26:12.613Z,8.24
2018-05-01T07:28:47.132Z,8.27
2018-05-01T07:31:20.949Z,8.29
2018-05-01T07:33:54.537Z,8.24
2018-05-01T07:36:27.952Z,8.25
2018-05-01T07:39:01.331Z,8.29
2018-05-01T07:41:35.263Z,8.27
2018-05-01T07:44:09.377Z,8.26
2018-05-01T07:46:43.166Z,8.26
2018-05-01T07:49:16.975Z,8.27
2018-05-01T07:51:51.200Z,8.29
2018-05-01T07:54:24.656Z,8.32
2018-05-01T07:56:58.609Z,8.31
2018-05-01T07:59:32.417Z,8.34
2018-05-01T08:02:06.138Z,8.38
2018-05-01T08:04:39.623Z,8.39
2018-05-01T08:07:13.172Z,8.42
2018-05-01T08:09:46.705Z,8.48
2018-05-01T08:12:20.440Z,8.55
2018-05-01T08:14:53.913Z,8.52
2018-05-01T08:17:27.305Z,8.55
2018-05-01T08:20:00.816Z,8.62
2018-05-01T08:22:34.644Z,8.69
2018-05-01T08:25:08.149Z,8.73
2018-05-01T08:27:42.109Z,8.72
2018-05-01T08:30:15.613Z,8.67
2018-05-01T08:32:49.412Z,8.67
2018-05-01T08:35:23.252Z,8.65
2018-05-01T08:37:56.612Z,8.64
2018-05-01T08:40:31.075Z,8.57
2018-05-01T08:43:04.557Z,8.51
2018-05-01T08:45:37.957Z,8.57
2018-05-01T08:48:11.775Z,8.59
2018-05-01T08:50:45.501Z,8.55
2018-05-01T08:53:19.798Z,8.56
2018-05-01T08:55:53.457Z,8.57
2018-05-01T08:58:27.553Z,8.63
2018-05-01T09:01:01.305Z,8.62
2018-05-01T09:03:35.388Z,8.59
2018-05-01T09:06:08.994Z,8.56
2018-05-01T09:08:42.568Z,8.62
2018-05-01T09:11:16.465Z,8.64
2018-05-01T09:13:50.358Z,8.72
2018-05-01T09:16:23.972Z,8.63
2018-05-01T09:18:57.562Z,8.57
2018-05-01T09:21:31.589Z,8.46
2018-05-01T09:24:05.413Z,8.41
2018-05-01T09:26:39.188Z,8.46
2018-05-01T09:29:12.986Z,8.41
2018-05-01T09:31:46.826Z,8.27
2018-05-01T09:34:20.828Z,8.24
2018-05-01T09:36:54.519Z,8.24
2018-05-01T09:39:28.734Z,8.27
2018-05-01T09:42:02.693Z,8.27
2018-05-01T09:44:36.817Z,8.21
2018-05-01T09:47:10.888Z,8.22
2018-05-01T09:49:44.480Z,8.27
2018-05-01T09:52:19.168Z,8.28
2018-05-01T09:54:54.220Z,8.30
2018-05-01T09:57:29.063Z,8.25
2018-05-01T10:00:03.993Z,8.26
2018-05-01T10:02:39.117Z,8.25
2018-05-01T10:05:14.210Z,8.27
2018-05-01T10:07:49.257Z,8.28
2018-05-01T10:10:24.393Z,8.28
2018-05-01T10:12:59.785Z,8.32
2018-05-01T10:15:34.594Z,8.37
2018-05-01T10:18:09.672Z,8.41
2018-05-01T10:20:44.084Z,8.45
2018-05-01T10:23:19.225Z,8.51
2018-05-01T10:25:53.668Z,8.61
2018-05-01T10:28:28.845Z,8.66
2018-05-01T10:31:03.296Z,8.72
2018-05-01T10:33:37.992Z,8.73
2018-05-01T10:36:13.236Z,8.73
2018-05-01T10:38:48.132Z,8.74
2018-05-01T10:41:23.361Z,8.80
2018-05-01T10:43:58.719Z,8.84
2018-05-01T10:46:33.717Z,8.91
2018-05-01T10:49:08.313Z,8.85
2018-05-01T10:51:43.698Z,8.88
2018-05-01T10:54:18.485Z,8.94
2018-05-01T10:56:53.472Z,8.95
2018-05-01T10:59:28.489Z,8.96
2018-05-01T11:02:03.306Z,9.05
2018-05-01T11:04:38.049Z,9.10
2018-05-01T11:07:12.973Z,9.11
2018-05-01T11:09:47.818Z,9.15
2018-05-01T11:12:22.320Z,9.26
2018-05-01T11:14:57.465Z,9.38
2018-05-01T11:17:32.577Z,9.51
2018-05-01T11:20:07.471Z,9.65
2018-05-01T11:22:42.308Z,9.84
2018-05-01T11:25:17.202Z,10.01
2018-05-01T11:27:52.228Z,10.14
2018-05-01T11:30:27.334Z,10.20
2018-05-01T11:33:02.229Z,10.31
2018-05-01T11:35:37.210Z,10.33
2018-05-01T11:38:11.360Z,10.29
2018-05-01T11:40:46.501Z,10.35
2018-05-01T11:43:21.651Z,10.44
2018-05-01T11:45:56.544Z,10.45
2018-05-01T11:48:31.244Z,10.46
2018-05-01T11:51:05.897Z,10.49
2018-05-01T11:53:40.980Z,10.50
2018-05-01T11:56:15.909Z,10.51
2018-05-01T11:58:50.932Z,10.50
2018-05-01T12:01:25.836Z,10.50
2018-05-01T12:04:00.637Z,10.50
2018-05-01T12:06:35.542Z,10.60
2018-05-01T12:09:10.570Z,10.71
2018-05-01T12:11:45.345Z,10.83
2018-05-01T12:14:20.026Z,10.89
2018-05-01T12:16:54.977Z,10.93
2018-05-01T12:19:29.691Z,10.87
2018-05-01T12:22:04.397Z,10.81
2018-05-01T12:24:39.341Z,10.74
2018-05-01T12:27:15.185Z,10.61
2018-05-01T12:29:50.454Z,10.94
2018-05-01T12:32:25.472Z,11.13
2018-05-01T12:35:00.309Z,11.27
2018-05-01T12:37:35.503Z,11.43
2018-05-01T12:40:10.189Z,11.62
2018-05-01T12:42:44.580Z,11.79
2018-05-01T12:45:19.645Z,11.90
2018-05-01T12:47:54.638Z,11.96
2018-05-01T12:50:29.928Z,12.03
2018-05-01T12:53:04.821Z,12.04
2018-05-01T12:55:39.828Z,12.08
2018-05-01T12:58:14.985Z,12.21
2018-05-01T13:00:49.966Z,12.39
2018-05-01T13:03:24.864Z,12.52
2018-05-01T13:06:08.963Z,12.68
2018-05-01T13:08:43.537Z,12.90
2018-05-01T13:11:18.602Z,13.10
2018-05-01T13:13:53.272Z,13.19
2018-05-01T13:16:28.185Z,13.13
2018-05-01T13:19:02.980Z,13.15
2018-05-01T13:21:37.771Z,13.14
2018-05-01T13:24:12.417Z,12.98
2018-05-01T13:26:47.025Z,12.94
2018-05-01T13:29:21.913Z,13.02
2018-05-01T13:31:56.813Z,13.19
2018-05-01T13:34:31.501Z,13.32
2018-05-01T13:37:06.216Z,13.32
2018-05-01T13:39:40.961Z,13.36
2018-05-01T13:42:15.880Z,13.36
2018-05-01T13:44:50.989Z,13.34
2018-05-01T13:47:26.109Z,13.39
2018-05-01T13:50:00.741Z,13.40
2018-05-01T13:52:35.693Z,13.45
2018-05-01T13:55:10.793Z,13.41
2018-05-01T13:57:45.701Z,13.38
2018-05-01T14:00:20.485Z,13.41
2018-05-01T14:02:55.462Z,13.50
2018-05-01T14:05:30.560Z,13.53
2018-05-01T14:08:04.890Z,13.57
2018-05-01T14:10:39.925Z,13.60
2018-05-01T14:13:14.859Z,13.56
2018-05-01T14:15:49.717Z,13.56
2018-05-01T14:18:24.797Z,13.49
2018-05-01T14:20:59.532Z,13.41
2018-05-01T14:23:34.681Z,13.37
2018-05-01T14:26:09.522Z,13.36
2018-05-01T14:28:44.665Z,13.44
2018-05-01T14:31:19.772Z,13.56
2018-05-01T14:33:54.744Z,13.64
2018-05-01T14:36:29.462Z,13.59
2018-05-01T14:39:03.557Z,13.51
2018-05-01T14:41:38.513Z,13.48
2018-05-01T14:44:13.560Z,13.52
2018-05-01T14:46:48.177Z,13.49
2018-05-01T14:49:22.713Z,13.44
2018-05-01T14:51:57.841Z,13.42
2018-05-01T14:54:32.682Z,13.47
2018-05-01T14:57:07.428Z,13.53
2018-05-01T14:59:42.657Z,13.63
2018-05-01T15:02:17.384Z,13.78
2018-05-01T15:04:52.189Z,13.93
2018-05-01T15:07:27.220Z,13.93
2018-05-01T15:10:01.943Z,13.93
2018-05-01T15:12:36.933Z,13.97
2018-05-01T15:15:12.054Z,14.00
2018-05-01T15:17:47.306Z,13.95
2018-05-01T15:20:22.280Z,13.94
2018-05-01T15:22:57.337Z,13.96
2018-05-01T15:25:33.047Z,13.93
2018-05-01T15:28:07.845Z,13.93
2018-05-01T15:30:42.429Z,13.87
2018-05-01T15:33:17.697Z,13.80
2018-05-01T15:35:52.674Z,13.82
2018-05-01T15:38:27.717Z,13.82
2018-05-01T15:41:02.565Z,13.87
2018-05-01T15:43:37.329Z,14.08
2018-05-01T15:46:11.923Z,14.00
2018-05-01T15:48:46.561Z,13.94
2018-05-01T15:51:21.401Z,13.89
2018-05-01T15:53:56.338Z,13.85
2018-05-01T15:56:31.175Z,13.82
2018-05-01T15:59:06.206Z,13.85
2018-05-01T16:01:40.985Z,13.94
2018-05-01T16:04:15.945Z,14.03
2018-05-01T16:06:49.924Z,14.07
2018-05-01T16:09:25.120Z,14.11
2018-05-01T16:12:00.173Z,14.20
2018-05-01T16:14:35.173Z,14.29
2018-05-01T16:17:10.141Z,14.19
2018-05-01T16:19:45.033Z,14.07
2018-05-01T16:22:20.213Z,14.00
2018-05-01T16:24:55.443Z,14.01
2018-05-01T16:27:30.349Z,14.06
2018-05-01T16:30:04.633Z,14.10
2018-05-01T16:32:39.197Z,14.17
2018-05-01T16:35:14.225Z,14.24
2018-05-01T16:37:49.481Z,14.23
2018-05-01T16:40:33.921Z,14.26
2018-05-01T16:43:08.375Z,14.20
2018-05-01T16:45:42.596Z,14.13
2018-05-01T16:48:17.581Z,14.08
2018-05-01T16:50:52.640Z,13.98
2018-05-01T16:53:27.748Z,13.89
2018-05-01T16:56:02.525Z,13.86
2018-05-01T16:58:37.166Z,13.83
2018-05-01T17:01:12.031Z,13.78
2018-05-01T17:03:47.201Z,13.71
2018-05-01T17:06:21.735Z,13.64
2018-05-01T17:08:56.861Z,13.56
2018-05-01T17:11:32.044Z,13.54
2018-05-01T17:14:07.270Z,13.51
2018-05-01T17:16:43.377Z,13.48
2018-05-01T17:19:18.073Z,13.44
2018-05-01T17:21:52.600Z,13.29
2018-05-01T17:24:27.202Z,13.15
2018-05-01T17:27:02.337Z,13.11
2018-05-01T17:29:37.165Z,13.12
2018-05-01T17:32:11.750Z,13.10
2018-05-01T17:34:46.519Z,13.06
2018-05-01T17:37:21.276Z,13.02
2018-05-01T17:39:55.952Z,13.06
2018-05-01T17:42:30.809Z,13.07
2018-05-01T17:45:05.073Z,13.05
2018-05-01T17:47:39.892Z,13.01
2018-05-01T17:50:14.789Z,12.96
2018-05-01T17:52:50.417Z,12.88
2018-05-01T17:55:25.354Z,12.79
2018-05-01T17:58:00.171Z,12.73
2018-05-01T18:00:34.735Z,12.70
2018-05-01T18:03:09.566Z,12.68
2018-05-01T18:05:44.029Z,12.64
2018-05-01T18:08:19.157Z,12.59
2018-05-01T18:10:53.962Z,12.51
2018-05-01T18:13:29.005Z,12.47
2018-05-01T18:16:03.721Z,12.39
2018-05-01T18:18:38.469Z,12.31
2018-05-01T18:21:13.275Z,12.29
2018-05-01T18:23:47.985Z,12.22
2018-05-01T18:26:22.574Z,12.14
2018-05-01T18:28:57.752Z,12.06
2018-05-01T18:31:32.710Z,12.01
2018-05-01T18:34:07.238Z,12.01
2018-05-01T18:36:41.945Z,11.99
2018-05-01T18:39:17.037Z,12.00
2018-05-01T18:41:51.653Z,11.89
2018-05-01T18:44:26.401Z,11.84
2018-05-01T18:47:01.177Z,11.84
2018-05-01T18:49:36.495Z,11.82
2018-05-01T18:52:11.566Z,11.81
2018-05-01T18:54:46.964Z,11.77
2018-05-01T18:57:21.964Z,11.75
2018-05-01T18:59:56.401Z,11.74
2018-05-01T19:02:31.610Z,11.74
2018-05-01T19:05:06.430Z,11.68
2018-05-01T19:07:41.408Z,11.46
2018-05-01T19:10:16.407Z,11.23
2018-05-01T19:12:51.061Z,11.10
2018-05-01T19:15:26.417Z,11.05
2018-05-01T19:18:01.454Z,11.02
2018-05-01T19:20:36.276Z,11.02
2018-05-01T19:23:11.062Z,11.02
2018-05-01T19:25:45.564Z,10.97
2018-05-01T19:28:20.947Z,10.90
2018-05-01T19:30:55.768Z,10.81
2018-05-01T19:33:30.897Z,10.73
2018-05-01T19:36:05.266Z,10.64
2018-05-01T19:38:40.309Z,10.57
2018-05-01T19:41:14.953Z,10.50
2018-05-01T19:43:50.246Z,10.42
2018-05-01T19:46:25.332Z,10.37
2018-05-01T19:49:00.673Z,10.28
2018-05-01T19:51:36.018Z,10.16
2018-05-01T19:54:10.905Z,9.99
2018-05-01T19:56:46.118Z,9.84
2018-05-01T19:59:21.272Z,9.77
2018-05-01T20:01:56.297Z,9.72
2018-05-01T20:04:31.114Z,9.68
2018-05-01T20:07:05.726Z,9.62
2018-05-01T20:09:40.778Z,9.55
2018-05-01T20:12:16.129Z,9.48
2018-05-01T20:14:51.192Z,9.37
2018-05-01T20:17:26.113Z,9.26
2018-05-01T20:20:01.508Z,9.19
2018-05-01T20:22:36.062Z,9.09
2018-05-01T20:25:11.226Z,9.03
2018-05-01T20:27:46.129Z,8.95
2018-05-01T20:30:21.012Z,8.87
2018-05-01T20:32:55.884Z,8.77
2018-05-01T20:35:30.638Z,8.71
2018-05-01T20:38:05.132Z,8.64
2018-05-01T20:40:40.090Z,8.58
2018-05-01T20:43:14.973Z,8.47
2018-05-01T20:45:50.074Z,8.42
2018-05-01T20:48:25.186Z,8.40
2018-05-01T20:50:59.582Z,8.38
2018-05-01T20:53:34.280Z,8.35
2018-05-01T20:56:09.081Z,8.28
2018-05-01T20:58:43.803Z,8.19
2018-05-01T21:01:18.962Z,8.14
2018-05-01T21:03:53.777Z,8.08
2018-05-01T21:06:28.792Z,8.04
2018-05-01T21:09:03.290Z,8.00
2018-05-01T21:11:38.578Z,7.96
2018-05-01T21:14:14.009Z,7.89
2018-05-01T21:16:49.080Z,7.82
2018-05-01T21:19:24.296Z,7.78
2018-05-01T21:21:58.661Z,7.71
2018-05-01T21:24:33.960Z,7.63
2018-05-01T21:27:08.701Z,7.53
2018-05-01T21:29:43.689Z,7.36
2018-05-01T21:32:18.553Z,7.29
2018-05-01T21:34:53.317Z,7.25
2018-05-01T21:37:27.799Z,7.20
2018-05-01T21:40:02.894Z,7.19
2018-05-01T21:42:37.757Z,7.16
2018-05-01T21:45:12.740Z,7.12
2018-05-01T21:47:47.948Z,7.08
2018-05-01T21:50:23.245Z,7.04
2018-05-01T21:52:58.502Z,7.01
2018-05-01T21:55:34.237Z,6.98
2018-05-01T21:58:09.538Z,6.92
2018-05-01T22:00:44.914Z,6.85
2018-05-01T22:03:19.609Z,6.83
2018-05-01T22:05:54.736Z,6.79
2018-05-01T22:08:29.673Z,6.73
2018-05-01T22:11:05.122Z,6.69
2018-05-01T22:13:39.730Z,6.63
2018-05-01T22:16:14.759Z,6.57
2018-05-01T22:18:50.329Z,6.53
2018-05-01T22:21:26.374Z,6.47
2018-05-01T22:24:01.717Z,6.40
2018-05-01T22:26:36.462Z,6.32
2018-05-01T22:29:11.703Z,6.27
2018-05-01T22:31:46.749Z,6.25
2018-05-01T22:34:21.567Z,6.24
2018-05-01T22:36:56.601Z,6.20
2018-05-01T22:39:31.641Z,6.18
2018-05-01T22:42:06.678Z,6.21
2018-05-01T22:44:41.606Z,6.19
2018-05-01T22:47:16.441Z,6.19
2018-05-01T22:49:51.145Z,6.19
2018-05-01T22:52:26.102Z,6.17
2018-05-01T22:55:01.941Z,6.14
2018-05-01T22:57:36.653Z,6.13
2018-05-01T23:00:10.917Z,6.11
2018-05-01T23:02:45.336Z,6.09
2018-05-01T23:05:20.353Z,6.05
2018-05-01T23:07:55.385Z,6.00
2018-05-01T23:10:29.857Z,5.95
2018-05-01T23:13:04.841Z,5.90
2018-05-01T23:15:39.900Z,5.86
2018-05-01T23:18:14.801Z,5.84
2018-05-01T23:20:49.617Z,5.78
2018-05-01T23:23:24.657Z,5.70
2018-05-01T23:25:59.532Z,5.69
2018-05-01T23:28:34.556Z,5.65
2018-05-01T23:31:09.785Z,5.62
2018-05-01T23:33:44.795Z,5.61
2018-05-01T23:36:19.488Z,5.58
2018-05-01T23:38:54.573Z,5.58
2018-05-01T23:41:29.244Z,5.56
2018-05-01T23:44:03.953Z,5.53
2018-05-01T23:46:38.883Z,5.50
2018-05-01T23:49:13.809Z,5.50
2018-05-01T23:51:48.561Z,5.52
2018-05-01T23:54:23.790Z,5.51
2018-05-01T23:56:58.921Z,5.49
2018-05-01T23:59:33.925Z,5.44
